createdAt,value
2019-05-29T00:00:21.166Z,89.51
2019-05-29T00:03:25.028Z,89.48
2019-05-29T00:06:28.853Z,89.16
2019-05-29T00:09:32.804Z,89.21
2019-05-29T00:12:36.622Z,89.40
2019-05-29T00:15:40.444Z,89.61
2019-05-29T00:18:44.322Z,89.82
2019-05-29T00:21:48.185Z,89.80
2019-05-29T00:24:52.053Z,89.68
2019-05-29T00:27:55.864Z,89.11
2019-05-29T00:30:59.737Z,89.35
2019-05-29T00:34:03.572Z,89.39
2019-05-29T00:37:08.526Z,89.57
2019-05-29T00:40:13.341Z,89.75
2019-05-29T00:43:17.619Z,89.48
2019-05-29T00:46:21.519Z,89.55
2019-05-29T00:49:25.440Z,89.60
2019-05-29T00:52:29.479Z,89.67
2019-05-29T00:55:33.302Z,89.81
2019-05-29T00:58:37.169Z,89.99
2019-05-29T01:01:41.126Z,90.14
2019-05-29T01:04:44.979Z,90.33
2019-05-29T01:07:48.831Z,90.61
2019-05-29T01:10:52.730Z,90.70
2019-05-29T01:13:56.592Z,90.70
2019-05-29T01:17:00.496Z,90.89
2019-05-29T01:20:06.088Z,91.19
2019-05-29T01:23:09.990Z,91.80
2019-05-29T01:26:14.476Z,90.83
2019-05-29T01:29:19.449Z,91.45
2019-05-29T01:32:23.849Z,91.55
2019-05-29T01:35:27.774Z,91.98
2019-05-29T01:38:31.767Z,92.34
2019-05-29T01:41:35.671Z,92.46
2019-05-29T01:44:39.596Z,92.44
2019-05-29T01:47:43.428Z,92.59
2019-05-29T01:50:47.322Z,92.62
2019-05-29T01:53:51.195Z,92.85
2019-05-29T01:56:55.032Z,92.98
2019-05-29T01:59:58.872Z,93.27
2019-05-29T02:03:02.723Z,93.41
2019-05-29T02:06:06.649Z,93.38
2019-05-29T02:09:10.563Z,93.12
2019-05-29T02:12:14.508Z,92.93
2019-05-29T02:15:26.039Z,92.84
2019-05-29T02:18:25.082Z,92.37
2019-05-29T02:21:29.015Z,92.57
2019-05-29T02:24:32.877Z,92.80
2019-05-29T02:27:36.863Z,92.99
2019-05-29T02:30:40.814Z,93.28
2019-05-29T02:33:44.735Z,93.47
2019-05-29T02:36:48.599Z,93.60
2019-05-29T02:39:52.521Z,93.75
2019-05-29T02:42:56.520Z,93.79
2019-05-29T02:46:00.510Z,93.67
2019-05-29T02:49:04.433Z,93.68
2019-05-29T02:52:08.248Z,93.67
2019-05-29T02:55:12.237Z,93.79
2019-05-29T02:58:16.174Z,93.86
2019-05-29T03:01:21.513Z,94.04
2019-05-29T03:04:26.227Z,94.06
2019-05-29T03:07:31.183Z,94.10
2019-05-29T03:10:36.305Z,94.17
2019-05-29T03:13:40.315Z,94.16
2019-05-29T03:16:44.312Z,94.02
2019-05-29T03:19:48.148Z,93.98
2019-05-29T03:22:51.983Z,94.04
2019-05-29T03:25:55.824Z,93.91
2019-05-29T03:28:59.660Z,93.78
2019-05-29T03:32:03.601Z,93.92
2019-05-29T03:35:07.725Z,93.82
2019-05-29T03:38:11.628Z,93.93
2019-05-29T03:41:15.557Z,93.79
2019-05-29T03:44:19.435Z,93.92
2019-05-29T03:47:23.286Z,94.04
2019-05-29T03:50:28.986Z,94.05
2019-05-29T03:53:33.739Z,94.38
2019-05-29T03:56:38.910Z,94.39
2019-05-29T03:59:43.120Z,94.52
2019-05-29T04:02:47.054Z,94.55
2019-05-29T04:05:50.896Z,94.87
2019-05-29T04:08:54.875Z,94.94
2019-05-29T04:11:58.810Z,95.14
2019-05-29T04:15:02.801Z,95.21
2019-05-29T04:18:06.950Z,95.31
2019-05-29T04:21:12.057Z,95.54
2019-05-29T04:24:18.715Z,95.51
2019-05-29T04:27:27.912Z,95.22
2019-05-29T04:30:34.306Z,94.96
2019-05-29T04:33:38.895Z,94.76
2019-05-29T04:36:42.909Z,94.48
2019-05-29T04:39:46.757Z,94.00
2019-05-29T04:42:50.628Z,93.55
2019-05-29T04:45:54.535Z,93.26
2019-05-29T04:48:58.367Z,92.81
2019-05-29T04:52:02.199Z,92.18
2019-05-29T04:55:06.598Z,90.67
2019-05-29T04:58:10.537Z,88.53
2019-05-29T05:01:14.457Z,89.33
2019-05-29T05:04:18.378Z,89.96
2019-05-29T05:07:22.262Z,90.40
2019-05-29T05:10:35.780Z,90.80
2019-05-29T05:13:39.834Z,90.68
2019-05-29T05:16:44.113Z,90.10
2019-05-29T05:19:48.024Z,87.26
2019-05-29T05:35:45.026Z,86.37
2019-05-29T05:39:17.900Z,85.44
2019-05-29T05:42:21.250Z,85.29
2019-05-29T05:45:31.007Z,84.98
2019-05-29T05:48:41.842Z,84.77
2019-05-29T05:51:50.698Z,82.38
2019-05-29T05:54:54.528Z,80.68
2019-05-29T05:57:58.371Z,81.61
2019-05-29T06:01:02.230Z,78.92
2019-05-29T06:04:37.917Z,80.43
2019-05-29T06:08:18.035Z,81.34
2019-05-29T06:11:28.168Z,78.19
2019-05-29T06:14:32.376Z,76.79
2019-05-29T06:17:36.575Z,75.19
2019-05-29T06:20:41.001Z,74.00
2019-05-29T06:23:44.933Z,75.29
2019-05-29T06:26:48.785Z,75.24
2019-05-29T06:29:52.664Z,75.72
2019-05-29T06:32:56.505Z,74.87
2019-05-29T06:36:00.538Z,73.92
2019-05-29T06:39:05.698Z,70.40
2019-05-29T06:42:09.699Z,72.40
2019-05-29T06:45:15.171Z,73.30
2019-05-29T06:48:41.398Z,74.67
2019-05-29T06:51:32.394Z,76.51
2019-05-29T06:54:36.239Z,72.66
2019-05-29T06:57:40.314Z,72.40
2019-05-29T07:00:44.844Z,73.03
2019-05-29T07:03:48.870Z,70.05
2019-05-29T07:06:52.679Z,67.43
2019-05-29T07:09:56.506Z,60.46
2019-05-29T07:13:00.316Z,62.44
2019-05-29T07:16:04.240Z,63.27
2019-05-29T07:19:24.741Z,63.85
2019-05-29T07:22:13.585Z,64.32
2019-05-29T07:25:17.436Z,61.62
2019-05-29T07:28:21.277Z,62.99
2019-05-29T07:31:25.072Z,62.54
2019-05-29T07:34:28.962Z,62.44
2019-05-29T07:37:32.770Z,57.86
2019-05-29T07:40:38.439Z,53.16
2019-05-29T07:43:42.278Z,57.52
2019-05-29T07:46:47.176Z,53.94
2019-05-29T07:49:51.665Z,53.38
2019-05-29T07:52:55.613Z,53.74
2019-05-29T07:55:59.476Z,52.21
2019-05-29T07:59:03.776Z,51.15
2019-05-29T08:02:07.751Z,51.46
2019-05-29T08:05:12.781Z,54.20
2019-05-29T08:08:16.634Z,52.25
2019-05-29T08:11:20.499Z,52.78
2019-05-29T08:14:24.314Z,49.68
2019-05-29T08:17:28.198Z,48.39
2019-05-29T08:20:32.093Z,51.27
2019-05-29T08:23:35.956Z,49.20
2019-05-29T08:26:40.763Z,51.25
2019-05-29T08:29:44.849Z,50.56
2019-05-29T08:32:49.236Z,48.98
2019-05-29T08:35:59.957Z,49.09
2019-05-29T08:38:58.755Z,51.05
2019-05-29T08:42:21.801Z,47.72
2019-05-29T08:45:08.974Z,50.34
2019-05-29T08:48:12.895Z,52.44
2019-05-29T08:51:16.710Z,54.46
2019-05-29T08:54:23.995Z,53.58
2019-05-29T08:57:26.097Z,53.66
2019-05-29T09:00:30.078Z,52.39
2019-05-29T09:03:33.888Z,51.38
2019-05-29T09:06:37.712Z,50.46
2019-05-29T09:09:42.856Z,51.03
2019-05-29T09:12:54.922Z,46.60
2019-05-29T09:15:52.427Z,44.96
2019-05-29T09:18:56.209Z,48.62
2019-05-29T09:22:00.042Z,50.45
2019-05-29T09:25:04.792Z,51.33
2019-05-29T09:28:16.113Z,51.85
2019-05-29T09:31:20.342Z,53.19
2019-05-29T09:34:24.748Z,50.93
2019-05-29T09:37:28.609Z,50.57
2019-05-29T09:40:32.426Z,44.53
2019-05-29T09:43:36.350Z,45.67
2019-05-29T09:46:40.172Z,45.39
2019-05-29T09:49:44.083Z,46.85
2019-05-29T09:52:47.955Z,47.21
2019-05-29T09:55:52.048Z,48.24
2019-05-29T09:58:58.477Z,50.75
2019-05-29T10:02:06.989Z,50.05
2019-05-29T10:05:09.969Z,49.80
2019-05-29T10:08:16.882Z,49.09
2019-05-29T10:11:19.285Z,44.63
2019-05-29T10:14:23.129Z,42.63
2019-05-29T10:17:27.014Z,47.36
2019-05-29T10:20:30.989Z,48.91
2019-05-29T10:23:34.861Z,48.72
2019-05-29T10:26:38.666Z,46.17
2019-05-29T10:29:42.535Z,46.90
2019-05-29T10:32:46.424Z,44.76
2019-05-29T10:35:53.512Z,42.12
2019-05-29T10:38:55.857Z,46.40
2019-05-29T10:41:59.757Z,47.21
2019-05-29T10:45:03.793Z,45.89
2019-05-29T10:48:07.745Z,48.33
2019-05-29T10:51:11.572Z,46.53
2019-05-29T10:54:15.401Z,48.17
2019-05-29T10:57:19.208Z,49.61
2019-05-29T11:00:23.291Z,48.24
2019-05-29T11:03:27.105Z,43.52
2019-05-29T11:06:30.938Z,43.72
2019-05-29T11:09:44.166Z,43.82
2019-05-29T11:12:40.393Z,42.65
2019-05-29T11:15:44.286Z,46.76
2019-05-29T11:18:49.155Z,42.90
2019-05-29T11:21:53.968Z,47.65
2019-05-29T11:25:18.868Z,48.70
2019-05-29T11:28:04.412Z,47.07
2019-05-29T11:31:08.221Z,48.06
2019-05-29T11:34:12.085Z,42.08
2019-05-29T11:37:15.938Z,42.89
2019-05-29T11:40:20.524Z,46.07
2019-05-29T11:43:24.345Z,44.10
2019-05-29T11:46:28.187Z,44.08
2019-05-29T11:49:31.978Z,45.45
2019-05-29T11:52:42.724Z,44.19
2019-05-29T11:55:41.432Z,43.99
2019-05-29T11:58:45.259Z,43.69
2019-05-29T12:01:50.852Z,44.12
2019-05-29T12:04:55.166Z,45.37
2019-05-29T12:07:59.593Z,43.85
2019-05-29T12:11:06.935Z,45.91
2019-05-29T12:14:09.266Z,45.23
2019-05-29T12:17:13.138Z,49.12
2019-05-29T12:20:27.965Z,47.69
2019-05-29T12:23:26.904Z,48.29
2019-05-29T12:26:29.239Z,48.24
2019-05-29T12:29:33.047Z,48.45
2019-05-29T12:32:36.942Z,50.92
2019-05-29T12:35:40.861Z,52.36
2019-05-29T12:38:44.695Z,49.24
2019-05-29T12:41:48.545Z,49.59
2019-05-29T12:44:53.554Z,52.54
2019-05-29T12:47:58.218Z,53.56
2019-05-29T12:51:04.006Z,49.37
2019-05-29T12:54:08.004Z,51.94
2019-05-29T12:57:11.920Z,52.82
2019-05-29T13:00:17.808Z,49.23
2019-05-29T13:03:21.629Z,52.76
2019-05-29T13:06:25.435Z,49.24
2019-05-29T13:09:29.315Z,51.37
2019-05-29T13:12:33.112Z,46.17
2019-05-29T13:15:36.942Z,46.13
2019-05-29T13:18:40.785Z,49.44
2019-05-29T13:21:44.618Z,48.53
2019-05-29T13:24:48.436Z,47.55
2019-05-29T13:27:52.286Z,48.65
2019-05-29T13:30:56.085Z,49.69
2019-05-29T13:34:00.064Z,48.27
2019-05-29T13:37:07.694Z,47.24
2019-05-29T13:40:11.398Z,47.78
2019-05-29T13:43:16.035Z,47.85
2019-05-29T13:46:20.030Z,46.52
2019-05-29T13:49:23.876Z,44.05
2019-05-29T13:52:27.739Z,44.60
2019-05-29T13:55:31.727Z,45.42
2019-05-29T13:58:35.516Z,43.45
2019-05-29T14:01:39.352Z,42.72
2019-05-29T14:04:43.173Z,44.31
2019-05-29T14:07:47.075Z,46.56
2019-05-29T14:10:50.978Z,46.54
2019-05-29T14:13:54.826Z,46.00
2019-05-29T14:16:58.637Z,49.17
2019-05-29T14:20:02.706Z,48.30
2019-05-29T14:23:07.505Z,46.11
2019-05-29T14:26:13.007Z,46.99
2019-05-29T14:29:17.138Z,43.48
2019-05-29T14:32:21.096Z,43.77
2019-05-29T14:35:24.978Z,45.19
2019-05-29T14:38:28.849Z,45.73
2019-05-29T14:41:32.638Z,46.71
2019-05-29T14:44:36.505Z,44.67
2019-05-29T14:47:40.448Z,43.79
2019-05-29T14:50:44.386Z,43.51
2019-05-29T14:53:48.266Z,47.88
2019-05-29T14:56:52.232Z,43.26
2019-05-29T14:59:56.059Z,42.62
2019-05-29T15:02:59.949Z,42.95
2019-05-29T15:06:03.911Z,41.73
2019-05-29T15:09:07.973Z,42.47
2019-05-29T15:12:12.162Z,44.50
2019-05-29T15:15:17.660Z,44.14
2019-05-29T15:18:21.576Z,42.25
2019-05-29T15:21:25.431Z,42.05
2019-05-29T15:24:29.282Z,44.53
2019-05-29T15:27:33.188Z,44.92
2019-05-29T15:30:37.423Z,39.25
2019-05-29T15:33:41.327Z,40.60
2019-05-29T15:36:45.298Z,40.58
2019-05-29T15:39:49.170Z,43.41
2019-05-29T15:42:53.055Z,41.26
2019-05-29T15:45:56.892Z,39.75
2019-05-29T15:49:00.932Z,41.36
2019-05-29T15:52:04.977Z,42.15
2019-05-29T15:55:24.828Z,40.75
2019-05-29T15:58:15.463Z,38.82
2019-05-29T16:01:19.402Z,37.32
2019-05-29T16:04:24.053Z,38.86
2019-05-29T16:07:27.858Z,39.39
2019-05-29T16:10:31.814Z,40.04
2019-05-29T16:13:35.750Z,39.48
2019-05-29T16:16:40.055Z,41.97
2019-05-29T16:19:44.013Z,40.58
2019-05-29T16:22:48.034Z,39.77
2019-05-29T16:25:52.247Z,42.59
2019-05-29T16:28:56.591Z,45.26
2019-05-29T16:32:02.244Z,43.86
2019-05-29T16:35:07.724Z,46.12
2019-05-29T16:38:11.705Z,49.52
2019-05-29T16:41:15.799Z,43.15
2019-05-29T16:44:25.081Z,42.23
2019-05-29T16:47:25.196Z,43.51
2019-05-29T16:50:29.081Z,42.59
2019-05-29T16:53:32.957Z,41.77
2019-05-29T16:56:36.757Z,43.31
2019-05-29T16:59:40.591Z,42.53
2019-05-29T17:02:44.421Z,44.49
2019-05-29T17:05:48.439Z,43.71
2019-05-29T17:08:52.505Z,42.15
2019-05-29T17:11:59.390Z,41.52
2019-05-29T17:15:06.012Z,43.72
2019-05-29T17:18:10.104Z,41.67
2019-05-29T17:21:14.439Z,43.12
2019-05-29T17:24:18.768Z,41.21
2019-05-29T17:27:23.108Z,41.07
2019-05-29T17:30:31.918Z,43.35
2019-05-29T17:33:35.907Z,40.74
2019-05-29T17:36:40.267Z,42.64
2019-05-29T17:39:44.228Z,39.58
2019-05-29T17:42:48.209Z,40.25
2019-05-29T17:45:52.446Z,39.54
2019-05-29T17:48:56.291Z,40.66
2019-05-29T17:52:00.083Z,41.61
2019-05-29T17:55:04.385Z,41.61
2019-05-29T17:58:08.291Z,42.08
2019-05-29T18:01:12.207Z,41.67
2019-05-29T18:04:16.026Z,43.44
2019-05-29T18:07:20.645Z,43.72
2019-05-29T18:10:25.687Z,43.37
2019-05-29T18:13:29.710Z,44.72
2019-05-29T18:16:33.531Z,45.54
2019-05-29T18:19:37.390Z,45.57
2019-05-29T18:22:41.285Z,47.90
2019-05-29T18:25:45.112Z,45.23
2019-05-29T18:28:49.101Z,45.58
2019-05-29T18:31:52.991Z,45.73
2019-05-29T18:34:56.970Z,46.03
2019-05-29T18:38:00.874Z,47.09
2019-05-29T18:41:04.845Z,48.48
2019-05-29T18:44:08.652Z,49.16
2019-05-29T18:47:12.483Z,49.60
2019-05-29T18:50:16.917Z,49.97
2019-05-29T18:53:20.819Z,50.92
2019-05-29T18:56:26.228Z,51.24
2019-05-29T18:59:31.753Z,50.97
2019-05-29T19:02:35.767Z,50.97
2019-05-29T19:05:39.744Z,51.45
2019-05-29T19:08:43.631Z,51.68
2019-05-29T19:11:47.607Z,52.60
2019-05-29T19:14:51.466Z,52.62
2019-05-29T19:17:55.382Z,54.07
2019-05-29T19:20:59.268Z,54.40
2019-05-29T19:24:03.181Z,55.66
2019-05-29T19:27:07.175Z,55.31
2019-05-29T19:30:11.576Z,54.84
2019-05-29T19:33:15.464Z,56.09
2019-05-29T19:36:19.282Z,56.95
2019-05-29T19:39:23.755Z,58.19
2019-05-29T19:42:28.165Z,58.84
2019-05-29T19:45:32.611Z,59.48
2019-05-29T19:48:36.652Z,60.27
2019-05-29T19:51:40.544Z,59.09
2019-05-29T19:54:44.442Z,58.88
2019-05-29T19:57:55.454Z,59.83
2019-05-29T20:00:54.067Z,61.20
2019-05-29T20:03:57.886Z,61.03
2019-05-29T20:07:01.806Z,62.03
2019-05-29T20:10:06.030Z,62.60
2019-05-29T20:13:09.906Z,63.34
2019-05-29T20:16:13.729Z,63.08
2019-05-29T20:19:17.530Z,64.63
2019-05-29T20:22:21.380Z,65.82
2019-05-29T20:25:25.228Z,65.93
2019-05-29T20:28:30.094Z,65.33
2019-05-29T20:31:34.537Z,65.45
2019-05-29T20:34:39.084Z,66.93
2019-05-29T20:37:42.966Z,67.57
2019-05-29T20:40:46.893Z,67.73
2019-05-29T20:43:50.721Z,67.65
2019-05-29T20:46:54.553Z,67.41
2019-05-29T20:49:58.403Z,67.30
2019-05-29T20:53:02.278Z,67.92
2019-05-29T20:56:06.444Z,67.45
2019-05-29T20:59:10.251Z,67.70
2019-05-29T21:02:14.089Z,67.97
2019-05-29T21:05:18.498Z,68.96
2019-05-29T21:08:22.324Z,69.18
2019-05-29T21:11:26.229Z,69.82
2019-05-29T21:14:30.050Z,69.69
2019-05-29T21:17:33.894Z,69.85
2019-05-29T21:20:38.322Z,69.99
2019-05-29T21:23:42.519Z,70.14
2019-05-29T21:26:46.450Z,70.26
2019-05-29T21:29:50.298Z,70.24
2019-05-29T21:32:54.181Z,69.61
2019-05-29T21:35:58.003Z,70.09
2019-05-29T21:39:01.933Z,70.93
2019-05-29T21:42:05.859Z,71.16
2019-05-29T21:45:10.739Z,72.90
2019-05-29T21:48:14.550Z,72.15
2019-05-29T21:51:18.376Z,71.79
2019-05-29T21:54:22.295Z,69.89
2019-05-29T21:57:26.108Z,70.39
2019-05-29T22:00:42.283Z,70.30
2019-05-29T22:03:46.611Z,70.22
2019-05-29T22:06:50.553Z,69.54
2019-05-29T22:09:54.545Z,69.53
2019-05-29T22:12:58.588Z,69.31
2019-05-29T22:16:02.356Z,69.15
2019-05-29T22:19:06.569Z,69.33
2019-05-29T22:22:10.382Z,69.20
2019-05-29T22:25:14.365Z,69.43
2019-05-29T22:28:18.310Z,69.17
2019-05-29T22:31:22.589Z,69.43
2019-05-29T22:34:26.514Z,69.54
2019-05-29T22:37:30.926Z,69.81
2019-05-29T22:40:34.900Z,69.49
2019-05-29T22:43:38.811Z,69.74
2019-05-29T22:46:43.087Z,69.49
2019-05-29T22:49:46.922Z,69.84
2019-05-29T22:52:51.781Z,69.69
2019-05-29T22:55:55.821Z,70.20
2019-05-29T22:59:00.196Z,70.78
2019-05-29T23:02:04.540Z,70.84
2019-05-29T23:05:08.523Z,70.84
2019-05-29T23:08:12.609Z,70.87
2019-05-29T23:11:16.989Z,71.11
2019-05-29T23:14:22.255Z,70.70
2019-05-29T23:17:26.405Z,70.66
2019-05-29T23:20:30.473Z,70.55
2019-05-29T23:23:34.829Z,70.43
2019-05-29T23:26:38.809Z,70.28
2019-05-29T23:29:49.031Z,70.33
2019-05-29T23:32:49.776Z,69.82
2019-05-29T23:35:54.870Z,70.01
2019-05-29T23:38:59.315Z,69.50
2019-05-29T23:42:03.660Z,69.29
2019-05-29T23:45:08.334Z,68.49
2019-05-29T23:48:12.177Z,68.49
2019-05-29T23:51:16.062Z,68.16
2019-05-29T23:54:19.945Z,67.61
2019-05-29T23:57:23.840Z,67.65
